createdAt,value
2019-04-21T00:00:39.771Z,7.33
2019-04-21T00:03:16.535Z,8.97
2019-04-21T00:05:58.935Z,9.03
2019-04-21T00:08:33.377Z,9.87
2019-04-21T00:11:02.752Z,13.70
2019-04-21T00:13:22.607Z,13.70
2019-04-21T00:15:44.211Z,9.17
2019-04-21T00:18:10.447Z,8.80
2019-04-21T00:20:44.216Z,9.00
2019-04-21T00:23:22.575Z,10.17
2019-04-21T00:25:49.901Z,8.83
2019-04-21T00:28:34.701Z,9.13
2019-04-21T00:30:57.910Z,8.13
2019-04-21T00:33:15.804Z,8.17
2019-04-21T00:35:45.392Z,10.77
2019-04-21T00:38:25.260Z,10.97
2019-04-21T00:41:00.022Z,8.53
2019-04-21T00:43:25.083Z,8.13
2019-04-21T00:45:50.894Z,9.53
2019-04-21T00:48:29.905Z,9.67
2019-04-21T00:51:10.667Z,10.13
2019-04-21T00:53:38.446Z,10.47
2019-04-21T00:56:11.696Z,8.63
2019-04-21T00:58:35.676Z,7.83
2019-04-21T01:01:01.603Z,11.30
2019-04-21T01:03:35.982Z,12.67
2019-04-21T01:06:04.131Z,11.40
2019-04-21T01:08:33.996Z,9.47
2019-04-21T01:10:52.783Z,9.37
2019-04-21T01:13:39.526Z,11.20
2019-04-21T01:16:21.199Z,10.47
2019-04-21T01:18:32.389Z,8.13
2019-04-21T01:20:40.336Z,10.93
2019-04-21T01:23:08.542Z,9.63
2019-04-21T01:25:41.167Z,9.63
2019-04-21T01:28:24.624Z,8.87
2019-04-21T01:31:01.139Z,11.23
2019-04-21T01:33:33.420Z,8.03
2019-04-21T01:35:54.917Z,8.60
2019-04-21T01:38:29.108Z,9.10
2019-04-21T01:41:03.525Z,9.73
2019-04-21T01:43:24.941Z,8.70
2019-04-21T01:45:53.983Z,8.57
2019-04-21T01:48:19.655Z,9.73
2019-04-21T01:50:51.231Z,10.60
2019-04-21T01:53:44.798Z,7.67
2019-04-21T01:56:11.827Z,9.93
2019-04-21T01:58:36.333Z,10.30
2019-04-21T02:01:10.235Z,7.67
2019-04-21T02:03:53.975Z,8.70
2019-04-21T02:06:18.545Z,10.53
2019-04-21T02:08:43.143Z,13.67
2019-04-21T02:11:18.880Z,9.17
2019-04-21T02:13:53.562Z,12.10
2019-04-21T02:16:18.573Z,12.77
2019-04-21T02:18:43.749Z,10.90
2019-04-21T02:21:04.127Z,11.50
2019-04-21T02:23:54.570Z,10.40
2019-04-21T02:26:19.062Z,12.83
2019-04-21T02:31:29.160Z,13.27
2019-04-21T02:41:34.050Z,18.93
2019-04-21T02:44:02.594Z,21.87
2019-04-21T02:46:35.293Z,23.90
2019-04-21T02:49:20.011Z,19.93
2019-04-21T02:51:28.140Z,17.57
2019-04-21T02:56:28.476Z,21.73
2019-04-21T02:59:02.961Z,23.23
2019-04-21T03:01:42.311Z,20.70
2019-04-21T03:04:24.493Z,22.83
2019-04-21T03:09:43.143Z,21.47
2019-04-21T03:12:11.124Z,21.23
2019-04-21T03:14:46.479Z,21.47
2019-04-21T03:19:46.187Z,25.67
2019-04-21T03:22:14.162Z,23.27
2019-04-21T03:24:53.944Z,26.77
2019-04-21T03:27:17.189Z,18.37
2019-04-21T03:32:36.749Z,20.83
2019-04-21T03:37:13.614Z,21.93
2019-04-21T03:42:18.754Z,26.40
2019-04-21T03:44:43.651Z,27.50
2019-04-21T03:49:50.040Z,23.97
2019-04-21T03:52:11.350Z,15.13
2019-04-21T03:54:41.669Z,13.50
2019-04-21T03:59:40.651Z,14.90
2019-04-21T04:02:14.874Z,19.33
2019-04-21T04:04:45.437Z,19.13
2019-04-21T04:07:31.397Z,16.93
2019-04-21T04:10:03.573Z,24.10
2019-04-21T04:12:26.324Z,23.43
2019-04-21T04:14:55.443Z,25.80
2019-04-21T04:20:11.797Z,25.93
2019-04-21T04:22:36.294Z,20.77
2019-04-21T04:25:15.473Z,18.10
2019-04-21T04:30:03.711Z,34.20
2019-04-21T04:32:32.776Z,32.97
2019-04-21T04:42:46.347Z,31.80
2019-04-21T04:45:15.050Z,30.57
2019-04-21T04:47:46.605Z,34.40
2019-04-21T04:50:04.098Z,48.03
2019-04-21T04:52:38.337Z,31.80
2019-04-21T04:55:06.837Z,26.77
2019-04-21T04:57:46.470Z,21.33
2019-04-21T05:02:41.753Z,25.37
2019-04-21T05:05:14.123Z,19.67
2019-04-21T05:07:46.615Z,22.03
2019-04-21T05:10:07.546Z,18.03
2019-04-21T05:12:38.851Z,27.23
2019-04-21T05:15:09.580Z,27.57
2019-04-21T05:17:49.205Z,28.67
2019-04-21T05:20:19.732Z,24.63
2019-04-21T05:22:51.803Z,30.20
2019-04-21T05:24:53.939Z,24.27
2019-04-21T05:27:36.244Z,23.47
2019-04-21T05:30:16.888Z,22.27
2019-04-21T05:32:48.876Z,22.60
2019-04-21T05:35:16.946Z,16.97
2019-04-21T05:37:50.457Z,17.47
2019-04-21T05:40:18.343Z,18.13
2019-04-21T05:42:51.028Z,23.60
2019-04-21T05:45:31.245Z,28.87
2019-04-21T05:48:02.818Z,33.07
2019-04-21T05:50:23.664Z,27.30
2019-04-21T05:52:49.735Z,23.73
2019-04-21T05:55:34.094Z,19.53
2019-04-21T05:57:59.956Z,20.67
2019-04-21T06:00:46.707Z,16.03
2019-04-21T06:03:04.285Z,15.10
2019-04-21T06:05:39.193Z,17.43
2019-04-21T06:08:02.799Z,15.30
2019-04-21T06:10:38.521Z,12.83
2019-04-21T06:13:05.820Z,15.83
2019-04-21T06:15:29.408Z,17.90
2019-04-21T06:18:04.977Z,19.30
2019-04-21T06:20:28.690Z,17.83
2019-04-21T06:23:00.943Z,16.53
2019-04-21T06:25:54.939Z,13.70
2019-04-21T06:27:59.971Z,18.47
2019-04-21T06:30:33.326Z,13.63
2019-04-21T06:32:52.739Z,18.77
2019-04-21T06:35:52.893Z,14.30
2019-04-21T06:38:03.657Z,12.33
2019-04-21T06:40:35.815Z,19.23
2019-04-21T06:43:15.683Z,15.63
2019-04-21T06:45:36.684Z,13.30
2019-04-21T06:48:04.475Z,12.27
2019-04-21T06:50:41.442Z,12.47
2019-04-21T06:53:12.089Z,10.80
2019-04-21T06:55:35.248Z,14.50
2019-04-21T06:57:59.231Z,15.53
2019-04-21T07:00:30.489Z,11.87
2019-04-21T07:03:11.533Z,10.93
2019-04-21T07:05:37.582Z,12.87
2019-04-21T07:08:14.810Z,16.90
2019-04-21T07:10:31.914Z,10.43
2019-04-21T07:13:03.276Z,13.90
2019-04-21T07:15:39.125Z,11.97
2019-04-21T07:18:04.611Z,11.43
2019-04-21T07:20:29.766Z,13.07
2019-04-21T07:23:05.231Z,13.53
2019-04-21T07:25:33.057Z,17.37
2019-04-21T07:28:02.979Z,13.67
2019-04-21T07:33:19.099Z,10.40
2019-04-21T07:35:31.870Z,13.40
2019-04-21T07:37:57.895Z,11.60
2019-04-21T07:40:24.776Z,18.20
2019-04-21T07:43:01.389Z,16.40
2019-04-21T07:45:27.786Z,14.83
2019-04-21T07:48:13.789Z,12.60
2019-04-21T07:50:46.649Z,10.20
2019-04-21T07:53:42.383Z,12.77
2019-04-21T07:55:46.956Z,13.10
2019-04-21T07:58:40.404Z,10.23
2019-04-21T08:01:07.461Z,12.97
2019-04-21T08:03:33.665Z,11.00
2019-04-21T08:06:08.513Z,11.40
2019-04-21T08:08:38.660Z,9.77
2019-04-21T08:11:05.499Z,10.20
2019-04-21T08:13:40.046Z,13.07
2019-04-21T08:16:04.560Z,10.83
2019-04-21T08:18:42.423Z,9.53
2019-04-21T08:21:02.347Z,10.30
2019-04-21T08:23:35.999Z,11.67
2019-04-21T08:26:05.538Z,8.83
2019-04-21T08:28:35.050Z,12.53
2019-04-21T08:31:01.410Z,13.10
2019-04-21T08:33:38.754Z,10.67
2019-04-21T08:38:34.375Z,11.33
2019-04-21T08:41:08.204Z,12.60
2019-04-21T08:43:42.525Z,8.53
2019-04-21T08:46:00.439Z,9.27
2019-04-21T08:48:29.090Z,13.93
2019-04-21T08:51:16.251Z,9.40
2019-04-21T08:53:35.759Z,9.67
2019-04-21T08:56:12.291Z,13.53
2019-04-21T08:59:04.075Z,10.67
2019-04-21T09:01:33.086Z,16.47
2019-04-21T09:04:01.230Z,13.20
2019-04-21T09:06:50.058Z,12.10
2019-04-21T09:11:28.764Z,10.70
2019-04-21T09:14:02.987Z,8.63
2019-04-21T09:16:26.489Z,11.43
2019-04-21T09:18:54.481Z,10.60
2019-04-21T09:21:35.761Z,9.27
2019-04-21T09:23:55.957Z,7.63
2019-04-21T09:26:43.209Z,7.90
2019-04-21T09:28:53.376Z,8.87
2019-04-21T09:31:10.721Z,8.90
2019-04-21T09:33:45.202Z,10.70
2019-04-21T09:36:14.541Z,8.77
2019-04-21T09:38:41.997Z,9.87
2019-04-21T09:41:14.273Z,8.87
2019-04-21T09:43:43.672Z,6.80
2019-04-21T09:46:08.382Z,9.57
2019-04-21T09:48:46.631Z,7.60
2019-04-21T09:51:06.600Z,8.07
2019-04-21T09:53:38.158Z,8.83
2019-04-21T09:56:08.771Z,7.23
2019-04-21T09:58:40.259Z,9.30
2019-04-21T10:01:15.868Z,8.47
2019-04-21T10:03:40.625Z,8.77
2019-04-21T10:06:04.457Z,11.30
2019-04-21T10:08:32.486Z,6.90
2019-04-21T10:11:01.010Z,8.37
2019-04-21T10:13:29.597Z,6.60
2019-04-21T10:15:59.313Z,8.73
2019-04-21T10:18:29.369Z,12.53
2019-04-21T10:20:57.565Z,10.33
2019-04-21T10:23:25.774Z,8.27
2019-04-21T10:25:54.678Z,8.17
2019-04-21T10:28:23.306Z,8.03
2019-04-21T10:30:51.429Z,9.30
2019-04-21T10:33:19.561Z,7.93
2019-04-21T10:35:48.837Z,7.77
2019-04-21T10:38:29.222Z,6.83
2019-04-21T10:40:47.572Z,9.83
2019-04-21T10:43:19.087Z,7.50
2019-04-21T10:45:46.471Z,7.57
2019-04-21T10:48:14.749Z,7.83
2019-04-21T10:50:43.131Z,8.00
2019-04-21T10:53:13.284Z,8.47
2019-04-21T10:55:57.880Z,7.80
2019-04-21T10:58:14.245Z,7.83
2019-04-21T11:00:44.151Z,9.77
2019-04-21T11:03:26.817Z,7.13
2019-04-21T11:06:00.920Z,8.13
2019-04-21T11:08:34.106Z,9.93
2019-04-21T11:10:59.010Z,7.57
2019-04-21T11:13:28.652Z,11.97
2019-04-21T11:15:57.129Z,7.07
2019-04-21T11:18:26.034Z,7.27
2019-04-21T11:20:55.176Z,5.20
2019-04-21T11:23:25.035Z,5.90
2019-04-21T11:25:53.929Z,5.43
2019-04-21T11:28:22.891Z,6.87
2019-04-21T11:30:51.054Z,6.50
2019-04-21T11:33:19.457Z,5.00
2019-04-21T11:35:48.922Z,6.30
2019-04-21T11:38:44.687Z,8.13
2019-04-21T11:41:03.559Z,5.00
2019-04-21T11:43:32.827Z,6.67
2019-04-21T11:46:02.270Z,8.77
2019-04-21T11:48:30.628Z,4.53
2019-04-21T11:50:59.275Z,6.83
2019-04-21T11:53:28.617Z,6.17
2019-04-21T11:55:57.026Z,7.43
2019-04-21T11:58:26.233Z,5.93
2019-04-21T12:01:03.336Z,6.93
2019-04-21T12:03:31.792Z,4.60
2019-04-21T12:05:59.880Z,5.33
2019-04-21T12:08:35.033Z,9.93
2019-04-21T12:10:57.857Z,6.40
2019-04-21T12:13:25.942Z,5.40
2019-04-21T12:15:57.026Z,6.57
2019-04-21T12:18:28.228Z,5.83
2019-04-21T12:20:55.669Z,3.93
2019-04-21T12:23:24.717Z,4.27
2019-04-21T12:25:52.743Z,4.80
2019-04-21T12:28:21.869Z,6.47
2019-04-21T12:30:51.770Z,6.43
2019-04-21T12:33:27.951Z,5.57
2019-04-21T12:35:56.120Z,4.53
2019-04-21T12:38:35.414Z,5.07
2019-04-21T12:40:54.875Z,6.70
2019-04-21T12:43:24.266Z,4.73
2019-04-21T12:45:53.777Z,4.93
2019-04-21T12:48:22.202Z,4.23
2019-04-21T12:50:50.294Z,5.70
2019-04-21T12:53:19.360Z,4.43
2019-04-21T12:55:48.058Z,3.80
2019-04-21T12:58:17.309Z,4.77
2019-04-21T13:00:45.425Z,5.00
2019-04-21T13:03:14.135Z,5.77
2019-04-21T13:05:43.423Z,4.17
2019-04-21T13:08:11.542Z,7.37
2019-04-21T13:10:40.207Z,4.43
2019-04-21T13:13:08.316Z,5.00
2019-04-21T13:15:37.528Z,5.37
2019-04-21T13:18:06.494Z,4.77
2019-04-21T13:20:35.883Z,8.93
2019-04-21T13:23:10.167Z,4.13
2019-04-21T13:25:38.416Z,6.37
2019-04-21T13:28:06.983Z,4.70
2019-04-21T13:30:36.106Z,4.47
2019-04-21T13:33:05.120Z,10.37
2019-04-21T13:35:33.279Z,5.23
2019-04-21T13:38:02.519Z,5.73
2019-04-21T13:40:53.322Z,4.43
2019-04-21T13:43:08.716Z,6.73
2019-04-21T13:45:37.373Z,7.13
2019-04-21T13:48:06.584Z,5.83
2019-04-21T13:50:35.266Z,7.77
2019-04-21T13:53:04.855Z,7.40
2019-04-21T13:55:36.694Z,4.63
2019-04-21T13:58:04.183Z,4.93
2019-04-21T14:00:33.507Z,4.47
2019-04-21T14:03:02.935Z,6.53
2019-04-21T14:05:31.107Z,3.30
2019-04-21T14:07:59.211Z,4.60
2019-04-21T14:10:27.335Z,5.80
2019-04-21T14:12:56.320Z,4.37
2019-04-21T14:15:24.466Z,4.23
2019-04-21T14:17:53.114Z,8.00
2019-04-21T14:20:21.632Z,5.23
2019-04-21T14:22:49.766Z,4.43
2019-04-21T14:25:17.839Z,4.73
2019-04-21T14:27:49.067Z,4.90
2019-04-21T14:30:18.573Z,4.50
2019-04-21T14:32:47.595Z,3.80
2019-04-21T14:35:16.675Z,5.53
2019-04-21T14:37:44.785Z,4.20
2019-04-21T14:40:20.113Z,3.87
2019-04-21T14:42:42.852Z,6.80
2019-04-21T14:45:12.684Z,4.03
2019-04-21T14:47:52.459Z,3.47
2019-04-21T14:50:22.285Z,3.83
2019-04-21T14:53:11.763Z,4.13
2019-04-21T14:55:41.654Z,4.80
2019-04-21T14:58:09.778Z,4.10
2019-04-21T15:00:48.435Z,6.60
2019-04-21T15:03:16.490Z,4.03
2019-04-21T15:05:45.130Z,5.43
2019-04-21T15:08:13.272Z,5.00
2019-04-21T15:10:41.370Z,6.37
2019-04-21T15:13:09.999Z,4.40
2019-04-21T15:15:39.320Z,4.43
2019-04-21T15:18:08.423Z,5.70
2019-04-21T15:20:38.372Z,5.83
2019-04-21T15:23:08.274Z,3.93
2019-04-21T15:25:36.422Z,4.23
2019-04-21T15:28:04.467Z,4.10
2019-04-21T15:30:34.414Z,5.90
2019-04-21T15:33:02.552Z,7.73
2019-04-21T15:35:31.059Z,5.40
2019-04-21T15:37:59.974Z,4.77
2019-04-21T15:40:37.462Z,5.17
2019-04-21T15:42:57.798Z,7.07
2019-04-21T15:45:26.422Z,4.40
2019-04-21T15:47:55.892Z,4.90
2019-04-21T15:50:25.143Z,3.87
2019-04-21T15:52:55.912Z,4.33
2019-04-21T15:55:41.855Z,5.83
2019-04-21T15:58:14.513Z,5.83
2019-04-21T16:01:00.591Z,5.03
2019-04-21T16:03:29.040Z,5.67
2019-04-21T16:05:57.151Z,3.60
2019-04-21T16:08:25.212Z,5.13
2019-04-21T16:10:57.098Z,3.03
2019-04-21T16:13:23.631Z,4.07
2019-04-21T16:15:52.527Z,6.57
2019-04-21T16:18:20.682Z,3.97
2019-04-21T16:20:49.910Z,3.90
2019-04-21T16:23:18.487Z,2.47
2019-04-21T16:25:48.589Z,3.03
2019-04-21T16:28:17.305Z,3.03
2019-04-21T16:30:46.587Z,2.63
2019-04-21T16:33:16.039Z,6.10
2019-04-21T16:35:44.158Z,3.60
2019-04-21T16:38:13.352Z,4.10
2019-04-21T16:40:50.769Z,2.77
2019-04-21T16:43:12.255Z,3.03
2019-04-21T16:45:41.112Z,2.93
2019-04-21T16:48:09.522Z,4.07
2019-04-21T16:50:37.570Z,3.50
2019-04-21T16:53:16.467Z,3.53
2019-04-21T16:56:04.906Z,4.57
2019-04-21T16:58:40.965Z,3.03
2019-04-21T17:01:18.755Z,4.03
2019-04-21T17:03:46.443Z,4.97
2019-04-21T17:06:15.282Z,5.30
2019-04-21T17:08:44.929Z,6.10
2019-04-21T17:13:42.998Z,5.50
2019-04-21T17:16:32.636Z,5.60
2019-04-21T17:16:36.468Z,4.17
2019-04-21T17:18:56.645Z,3.57
2019-04-21T17:21:12.463Z,6.23
2019-04-21T17:23:40.751Z,4.83
2019-04-21T17:26:08.999Z,3.13
2019-04-21T17:28:38.587Z,3.13
2019-04-21T17:31:06.727Z,4.90
2019-04-21T17:33:35.561Z,4.40
2019-04-21T17:36:04.963Z,6.63
2019-04-21T17:38:34.160Z,6.07
2019-04-21T17:41:14.245Z,5.50
2019-04-21T17:43:32.146Z,2.83
2019-04-21T17:46:00.181Z,5.63
2019-04-21T17:48:29.270Z,4.07
2019-04-21T17:50:59.349Z,3.93
2019-04-21T17:53:42.954Z,3.43
2019-04-21T17:56:27.638Z,5.80
2019-04-21T17:59:01.525Z,6.87
2019-04-21T18:01:25.116Z,5.60
2019-04-21T18:04:01.444Z,5.57
2019-04-21T18:06:22.135Z,3.70
2019-04-21T18:08:51.944Z,7.00
2019-04-21T18:11:17.892Z,5.63
2019-04-21T18:13:37.644Z,4.17
2019-04-21T18:16:13.382Z,5.30
2019-04-21T18:18:36.846Z,5.33
2019-04-21T18:21:09.665Z,7.70
2019-04-21T18:23:52.094Z,5.73
2019-04-21T18:26:25.962Z,4.27
2019-04-21T18:28:42.174Z,6.13
2019-04-21T18:31:12.252Z,7.27
2019-04-21T18:33:43.938Z,5.27
2019-04-21T18:36:20.256Z,6.10
2019-04-21T18:39:18.191Z,6.07
2019-04-21T18:41:36.445Z,5.10
2019-04-21T18:44:53.461Z,4.83
2019-04-21T18:47:05.419Z,7.37
2019-04-21T18:49:24.656Z,4.10
2019-04-21T18:52:20.724Z,5.80
2019-04-21T18:54:54.950Z,4.23
2019-04-21T18:57:20.542Z,7.10
2019-04-21T18:59:41.772Z,4.33
2019-04-21T19:02:11.260Z,4.03
2019-04-21T19:04:40.531Z,6.20
2019-04-21T19:07:19.971Z,6.93
2019-04-21T19:12:47.564Z,6.67
2019-04-21T19:14:56.644Z,5.53
2019-04-21T19:20:02.639Z,6.17
2019-04-21T19:22:27.911Z,7.83
2019-04-21T19:24:59.471Z,7.03
2019-04-21T19:27:26.295Z,7.00
2019-04-21T19:30:23.398Z,4.57
2019-04-21T19:32:28.871Z,6.17
2019-04-21T19:34:48.359Z,6.03
2019-04-21T19:37:17.098Z,7.60
2019-04-21T19:40:00.491Z,3.93
2019-04-21T19:42:22.636Z,5.93
2019-04-21T19:44:59.284Z,4.90
2019-04-21T19:47:37.171Z,8.03
2019-04-21T19:50:07.857Z,7.37
2019-04-21T19:52:26.571Z,4.83
2019-04-21T19:54:48.193Z,6.77
2019-04-21T19:57:13.638Z,5.40
2019-04-21T19:59:48.073Z,4.70
2019-04-21T20:02:12.252Z,8.03
2019-04-21T20:04:46.963Z,5.03
2019-04-21T20:07:23.460Z,5.50
2019-04-21T20:10:02.244Z,5.50
2019-04-21T20:12:38.225Z,4.73
2019-04-21T20:15:13.660Z,7.00
2019-04-21T20:17:24.322Z,4.43
2019-04-21T20:19:40.208Z,5.17
2019-04-21T20:22:09.396Z,4.77
2019-04-21T20:24:39.514Z,4.73
2019-04-21T20:27:15.855Z,4.30
2019-04-21T20:29:57.274Z,3.70
2019-04-21T20:32:46.130Z,7.10
2019-04-21T20:35:01.204Z,4.50
2019-04-21T20:37:29.725Z,5.47
2019-04-21T20:39:47.057Z,5.37
2019-04-21T20:42:21.558Z,3.90
2019-04-21T20:45:16.045Z,6.37
2019-04-21T20:47:19.735Z,4.70
2019-04-21T20:49:52.733Z,3.73
2019-04-21T20:52:29.495Z,4.97
2019-04-21T20:54:55.115Z,6.03
2019-04-21T20:57:26.279Z,5.40
2019-04-21T20:59:52.707Z,6.93
2019-04-21T21:02:30.017Z,5.13
2019-04-21T21:04:45.782Z,6.20
2019-04-21T21:07:36.690Z,5.20
2019-04-21T21:10:03.107Z,4.77
2019-04-21T21:12:27.608Z,4.33
2019-04-21T21:14:50.282Z,6.97
2019-04-21T21:17:42.619Z,5.63
2019-04-21T21:19:57.937Z,4.03
2019-04-21T21:22:16.769Z,3.30
2019-04-21T21:24:53.936Z,4.77
2019-04-21T21:27:19.197Z,5.43
2019-04-21T21:29:57.281Z,3.87
2019-04-21T21:32:29.156Z,5.57
2019-04-21T21:34:56.857Z,4.90
2019-04-21T21:37:32.284Z,5.83
2019-04-21T21:40:01.128Z,5.83
2019-04-21T21:42:11.083Z,5.10
2019-04-21T21:44:41.727Z,3.60
2019-04-21T21:47:19.890Z,4.27
2019-04-21T21:49:54.208Z,6.03
2019-04-21T21:52:16.905Z,5.13
2019-04-21T21:54:38.350Z,4.57
2019-04-21T21:57:08.186Z,7.47
2019-04-21T21:59:38.221Z,5.43
2019-04-21T22:02:09.480Z,7.07
2019-04-21T22:04:38.982Z,5.73
2019-04-21T22:07:09.961Z,5.77
2019-04-21T22:09:36.493Z,10.20
2019-04-21T22:12:07.162Z,6.57
2019-04-21T22:14:41.533Z,5.40
2019-04-21T22:17:21.708Z,6.23
2019-04-21T22:19:58.058Z,11.30
2019-04-21T22:22:19.188Z,5.33
2019-04-21T22:24:49.285Z,8.07
2019-04-21T22:27:05.361Z,5.93
2019-04-21T22:29:41.816Z,6.93
2019-04-21T22:32:11.360Z,5.70
2019-04-21T22:34:46.442Z,5.90
2019-04-21T22:37:21.223Z,5.73
2019-04-21T22:39:53.007Z,6.97
2019-04-21T22:42:15.726Z,6.27
2019-04-21T22:44:36.476Z,6.37
2019-04-21T22:47:12.070Z,8.30
2019-04-21T22:49:34.871Z,7.20
2019-04-21T22:52:11.321Z,5.10
2019-04-21T22:54:37.996Z,5.37
2019-04-21T22:57:11.763Z,7.17
2019-04-21T22:59:33.729Z,4.80
2019-04-21T23:02:06.326Z,6.00
2019-04-21T23:04:39.076Z,5.33
2019-04-21T23:07:07.639Z,8.17
2019-04-21T23:09:32.863Z,6.57
2019-04-21T23:12:01.909Z,8.80
2019-04-21T23:14:33.910Z,8.30
2019-04-21T23:17:26.631Z,5.20
2019-04-21T23:19:44.923Z,9.67
2019-04-21T23:22:16.207Z,6.50
2019-04-21T23:24:54.431Z,7.00
2019-04-21T23:27:15.604Z,9.00
2019-04-21T23:29:58.941Z,5.90
2019-04-21T23:32:17.289Z,10.70
2019-04-21T23:34:36.370Z,7.00
2019-04-21T23:37:10.130Z,5.27
2019-04-21T23:39:33.788Z,5.67
2019-04-21T23:42:03.124Z,7.27
2019-04-21T23:44:39.187Z,4.97
2019-04-21T23:47:06.784Z,8.03
2019-04-21T23:49:42.569Z,6.00
2019-04-21T23:52:05.237Z,9.17
2019-04-21T23:54:31.421Z,5.93
2019-04-21T23:57:02.856Z,6.07
2019-04-21T23:59:31.184Z,6.77
